createdAt,value
2023-05-16T00:01:41.501Z,2.70
2023-05-16T00:04:09.209Z,2.80
2023-05-16T00:06:36.618Z,2.00
2023-05-16T00:09:04.225Z,3.00
2023-05-16T00:11:31.730Z,2.70
2023-05-16T00:13:59.074Z,2.40
2023-05-16T00:16:29.644Z,2.30
2023-05-16T00:19:01.502Z,3.00
2023-05-16T00:21:28.947Z,3.40
2023-05-16T00:23:56.271Z,2.50
2023-05-16T00:26:23.696Z,3.00
2023-05-16T00:28:50.912Z,2.50
2023-05-16T00:31:18.448Z,2.60
2023-05-16T00:33:46.500Z,2.50
2023-05-16T00:36:13.848Z,1.90
2023-05-16T00:38:41.316Z,2.60
2023-05-16T00:41:08.747Z,3.00
2023-05-16T00:43:37.484Z,2.60
2023-05-16T00:46:04.935Z,2.30
2023-05-16T00:48:32.862Z,2.20
2023-05-16T00:51:01.563Z,2.60
2023-05-16T00:53:28.908Z,2.60
2023-05-16T00:55:57.776Z,2.20
2023-05-16T00:58:25.143Z,2.20
2023-05-16T01:00:52.962Z,2.30
2023-05-16T01:03:20.696Z,2.90
2023-05-16T01:05:48.340Z,3.00
2023-05-16T01:08:15.636Z,3.10
2023-05-16T01:11:08.495Z,3.00
2023-05-16T01:13:57.676Z,3.30
2023-05-16T01:16:38.145Z,3.90
2023-05-16T01:19:21.665Z,3.00
2023-05-16T01:21:53.384Z,3.40
2023-05-16T01:24:28.185Z,2.50
2023-05-16T01:26:55.611Z,2.50
2023-05-16T01:29:22.888Z,2.60
2023-05-16T01:31:50.196Z,2.50
2023-05-16T01:34:19.049Z,2.10
2023-05-16T01:37:01.196Z,2.40
2023-05-16T01:39:39.566Z,2.40
2023-05-16T01:42:13.092Z,2.60
2023-05-16T01:44:52.742Z,4.10
2023-05-16T01:47:21.618Z,3.00
2023-05-16T01:49:58.488Z,2.40
2023-05-16T01:52:41.009Z,3.20
2023-05-16T01:57:42.659Z,3.00
2023-05-16T02:00:10.579Z,3.40
2023-05-16T02:02:41.384Z,2.90
2023-05-16T02:05:09.853Z,3.00
2023-05-16T02:07:37.327Z,2.70
2023-05-16T02:10:05.241Z,2.80
2023-05-16T02:12:36.824Z,2.90
2023-05-16T02:15:04.348Z,2.30
2023-05-16T02:17:32.218Z,2.20
2023-05-16T02:20:06.956Z,2.50
2023-05-16T02:22:34.320Z,2.50
2023-05-16T02:25:02.306Z,2.80
2023-05-16T02:27:30.018Z,2.90
2023-05-16T02:29:58.048Z,2.40
2023-05-16T02:32:26.574Z,3.20
2023-05-16T02:34:53.916Z,2.40
2023-05-16T02:37:21.479Z,2.50
2023-05-16T02:39:49.939Z,3.50
2023-05-16T02:42:17.472Z,3.20
2023-05-16T02:44:45.369Z,2.80
2023-05-16T02:47:12.672Z,3.40
2023-05-16T02:49:39.934Z,3.20
2023-05-16T02:52:08.033Z,2.80
2023-05-16T02:54:35.976Z,4.30
2023-05-16T02:57:03.475Z,5.50
2023-05-16T02:59:31.101Z,3.90
2023-05-16T03:01:58.561Z,3.60
2023-05-16T03:04:27.377Z,3.90
2023-05-16T03:06:54.837Z,3.70
2023-05-16T03:09:22.187Z,3.80
2023-05-16T03:11:49.611Z,5.30
2023-05-16T03:14:20.028Z,4.30
2023-05-16T03:16:47.529Z,3.70
2023-05-16T03:19:15.105Z,3.40
2023-05-16T03:21:42.528Z,3.70
2023-05-16T03:24:09.823Z,3.50
2023-05-16T03:26:37.229Z,3.50
2023-05-16T03:29:04.690Z,4.60
2023-05-16T03:31:32.266Z,2.90
2023-05-16T03:33:59.769Z,3.80
2023-05-16T03:36:27.200Z,3.80
2023-05-16T03:38:54.677Z,3.40
2023-05-16T03:41:22.487Z,3.50
2023-05-16T03:43:49.962Z,4.70
2023-05-16T03:46:17.312Z,3.50
2023-05-16T03:48:44.851Z,3.80
2023-05-16T03:51:12.181Z,3.60
2023-05-16T03:53:39.593Z,3.30
2023-05-16T03:56:07.032Z,3.00
2023-05-16T03:58:34.530Z,3.90
2023-05-16T04:01:01.865Z,3.80
2023-05-16T04:03:30.474Z,3.20
2023-05-16T04:05:58.215Z,4.50
2023-05-16T04:08:27.130Z,3.10
2023-05-16T04:10:54.883Z,2.90
2023-05-16T04:13:22.288Z,3.40
2023-05-16T04:15:49.771Z,3.30
2023-05-16T04:18:19.712Z,4.00
2023-05-16T04:20:47.892Z,3.30
2023-05-16T04:23:15.262Z,3.00
2023-05-16T04:25:43.209Z,3.10
2023-05-16T04:28:10.784Z,3.70
2023-05-16T04:30:38.584Z,3.50
2023-05-16T04:33:06.382Z,3.50
2023-05-16T04:35:34.138Z,3.50
2023-05-16T04:38:02.149Z,3.70
2023-05-16T04:40:29.602Z,2.70
2023-05-16T04:42:59.397Z,2.60
2023-05-16T04:45:27.039Z,5.10
2023-05-16T04:47:54.728Z,2.50
2023-05-16T04:50:22.062Z,2.40
2023-05-16T04:52:49.505Z,3.10
2023-05-16T04:55:17.619Z,3.10
2023-05-16T04:57:45.580Z,3.90
2023-05-16T05:00:13.649Z,4.60
2023-05-16T05:02:41.149Z,3.60
2023-05-16T05:05:09.191Z,3.80
2023-05-16T05:07:36.491Z,3.90
2023-05-16T05:10:03.968Z,4.40
2023-05-16T05:12:31.380Z,3.40
2023-05-16T05:14:58.503Z,4.40
2023-05-16T05:17:25.938Z,4.20
2023-05-16T05:19:53.495Z,4.00
2023-05-16T05:22:20.945Z,3.70
2023-05-16T05:24:48.315Z,4.50
2023-05-16T05:27:16.206Z,4.10
2023-05-16T05:29:43.507Z,4.30
2023-05-16T05:32:10.997Z,3.70
2023-05-16T05:34:38.372Z,5.00
2023-05-16T05:37:05.883Z,4.20
2023-05-16T05:39:33.397Z,6.70
2023-05-16T05:42:01.705Z,7.00
2023-05-16T05:44:29.322Z,7.30
2023-05-16T05:46:57.690Z,6.90
2023-05-16T05:49:25.943Z,8.00
2023-05-16T05:51:53.483Z,9.00
2023-05-16T05:54:20.856Z,9.00
2023-05-16T05:56:48.166Z,5.40
2023-05-16T05:59:15.688Z,7.30
2023-05-16T06:01:44.693Z,5.60
2023-05-16T06:04:12.154Z,5.50
2023-05-16T06:06:40.431Z,4.50
2023-05-16T06:09:07.802Z,4.60
2023-05-16T06:11:35.314Z,5.40
2023-05-16T06:14:03.632Z,4.00
2023-05-16T06:16:56.639Z,3.40
2023-05-16T06:19:39.326Z,3.10
2023-05-16T06:22:07.138Z,4.20
2023-05-16T06:24:34.962Z,3.10
2023-05-16T06:27:02.355Z,2.70
2023-05-16T06:29:29.678Z,2.80
2023-05-16T06:31:57.175Z,3.00
2023-05-16T06:34:28.260Z,2.50
2023-05-16T06:36:55.653Z,2.90
2023-05-16T06:39:23.142Z,3.50
2023-05-16T06:41:50.554Z,3.40
2023-05-16T06:44:17.858Z,3.00
2023-05-16T06:46:45.264Z,3.50
2023-05-16T06:49:12.603Z,3.30
2023-05-16T06:51:40.771Z,3.20
2023-05-16T06:54:08.190Z,2.90
2023-05-16T06:56:35.776Z,3.30
2023-05-16T06:59:03.280Z,2.80
2023-05-16T07:01:30.774Z,4.20
2023-05-16T07:03:58.402Z,4.00
2023-05-16T07:06:26.946Z,4.60
2023-05-16T07:08:54.227Z,3.90
2023-05-16T07:11:21.708Z,3.40
2023-05-16T07:13:49.077Z,5.40
2023-05-16T07:16:19.408Z,7.90
2023-05-16T07:18:46.799Z,4.70
2023-05-16T07:21:14.169Z,4.10
2023-05-16T07:23:41.938Z,3.60
2023-05-16T07:26:09.401Z,2.90
2023-05-16T07:28:37.020Z,3.00
2023-05-16T07:31:04.656Z,3.60
2023-05-16T07:33:32.176Z,3.50
2023-05-16T07:36:12.116Z,2.90
2023-05-16T07:38:43.337Z,4.70
2023-05-16T07:41:10.800Z,3.90
2023-05-16T07:43:38.130Z,2.60
2023-05-16T07:46:05.853Z,2.70
2023-05-16T07:48:33.192Z,3.00
2023-05-16T07:51:00.593Z,3.90
2023-05-16T07:53:27.984Z,3.40
2023-05-16T07:55:55.770Z,4.90
2023-05-16T07:58:23.116Z,3.50
2023-05-16T08:00:51.177Z,3.90
2023-05-16T08:03:18.755Z,4.10
2023-05-16T08:05:46.244Z,3.10
2023-05-16T08:08:13.927Z,3.30
2023-05-16T08:10:41.456Z,4.20
2023-05-16T08:13:09.065Z,4.20
2023-05-16T08:15:36.456Z,3.70
2023-05-16T08:18:04.080Z,3.70
2023-05-16T08:20:31.401Z,2.60
2023-05-16T08:22:59.078Z,2.60
2023-05-16T08:25:27.169Z,3.70
2023-05-16T08:27:54.722Z,3.70
2023-05-16T08:30:22.086Z,4.50
2023-05-16T08:32:49.546Z,3.20
2023-05-16T08:35:17.102Z,2.40
2023-05-16T08:37:44.601Z,3.50
2023-05-16T08:40:12.970Z,3.50
2023-05-16T08:42:41.503Z,3.20
2023-05-16T08:45:10.922Z,3.30
2023-05-16T08:47:38.333Z,4.80
2023-05-16T08:50:06.414Z,2.50
2023-05-16T08:52:34.046Z,2.60
2023-05-16T08:55:10.943Z,2.80
2023-05-16T08:57:39.017Z,2.50
2023-05-16T09:00:13.058Z,2.40
2023-05-16T09:02:44.952Z,2.50
2023-05-16T09:05:13.818Z,2.10
2023-05-16T09:07:42.357Z,1.80
2023-05-16T09:10:10.695Z,2.20
2023-05-16T09:12:39.974Z,2.90
2023-05-16T09:15:09.278Z,2.70
2023-05-16T09:17:42.622Z,2.70
2023-05-16T09:20:15.477Z,2.10
2023-05-16T09:22:56.723Z,2.30
2023-05-16T09:25:30.929Z,2.50
2023-05-16T09:28:00.391Z,2.30
2023-05-16T09:30:30.436Z,2.60
2023-05-16T09:32:58.113Z,2.60
2023-05-16T09:35:39.929Z,3.30
2023-05-16T09:38:15.724Z,3.70
2023-05-16T09:43:10.638Z,2.00
2023-05-16T09:45:38.173Z,2.20
2023-05-16T09:48:07.181Z,2.40
2023-05-16T09:50:35.328Z,2.60
2023-05-16T09:53:03.106Z,2.90
2023-05-16T09:55:31.197Z,2.20
2023-05-16T09:57:58.540Z,2.50
2023-05-16T10:00:31.588Z,2.50
2023-05-16T10:03:01.490Z,2.30
2023-05-16T10:05:31.812Z,2.40
2023-05-16T10:07:59.121Z,2.80
2023-05-16T10:10:26.670Z,2.70
2023-05-16T10:12:54.117Z,3.00
2023-05-16T10:15:22.451Z,2.50
2023-05-16T10:17:52.755Z,2.40
2023-05-16T10:20:20.227Z,2.70
2023-05-16T10:22:47.615Z,2.90
2023-05-16T10:25:32.707Z,1.90
2023-05-16T10:28:00.561Z,2.40
2023-05-16T10:30:27.886Z,3.30
2023-05-16T10:32:55.234Z,2.80
2023-05-16T10:35:22.780Z,2.60
2023-05-16T10:37:50.781Z,2.20
2023-05-16T10:40:18.360Z,2.20
2023-05-16T10:43:23.122Z,2.40
2023-05-16T10:46:10.859Z,3.10
2023-05-16T10:48:39.721Z,2.70
2023-05-16T10:51:34.527Z,2.70
2023-05-16T10:54:10.934Z,2.80
2023-05-16T10:56:38.622Z,2.50
2023-05-16T10:59:26.390Z,2.80
2023-05-16T11:01:56.472Z,2.30
2023-05-16T11:04:24.191Z,2.30
2023-05-16T11:06:53.295Z,2.20
2023-05-16T11:09:26.884Z,2.30
2023-05-16T11:11:59.097Z,2.50
2023-05-16T11:14:32.902Z,3.60
2023-05-16T11:17:08.520Z,3.40
2023-05-16T11:19:45.631Z,3.00
2023-05-16T11:22:19.214Z,2.50
2023-05-16T11:24:51.424Z,3.20
2023-05-16T11:27:31.830Z,2.90
2023-05-16T11:30:03.322Z,2.60
2023-05-16T11:32:34.633Z,2.20
2023-05-16T11:35:05.410Z,3.30
2023-05-16T11:37:32.831Z,1.90
2023-05-16T11:40:04.565Z,1.80
2023-05-16T11:42:34.574Z,2.20
2023-05-16T11:45:13.057Z,1.90
2023-05-16T11:47:40.876Z,1.80
2023-05-16T11:50:13.245Z,2.40
2023-05-16T11:52:41.211Z,2.70
2023-05-16T11:55:11.159Z,2.50
2023-05-16T11:57:39.354Z,2.20
2023-05-16T12:00:15.277Z,2.50
2023-05-16T12:02:43.870Z,2.40
2023-05-16T12:05:11.842Z,3.20
2023-05-16T12:07:39.217Z,2.40
2023-05-16T12:10:09.792Z,2.30
2023-05-16T12:12:37.682Z,2.20
2023-05-16T12:15:06.903Z,2.40
2023-05-16T12:17:35.393Z,2.00
2023-05-16T12:20:06.049Z,2.30
2023-05-16T12:22:36.619Z,2.70
2023-05-16T12:25:22.983Z,3.10
2023-05-16T12:27:50.966Z,2.40
2023-05-16T12:30:19.245Z,1.70
2023-05-16T12:32:46.700Z,2.30
2023-05-16T12:35:14.878Z,2.30
2023-05-16T12:37:44.102Z,2.00
2023-05-16T12:40:13.608Z,2.30
2023-05-16T12:42:53.572Z,2.20
2023-05-16T12:45:22.715Z,2.20
2023-05-16T12:47:50.258Z,2.10
2023-05-16T12:50:20.505Z,2.20
2023-05-16T12:52:52.274Z,3.30
2023-05-16T12:55:20.858Z,3.20
2023-05-16T12:57:49.090Z,2.30
2023-05-16T13:00:21.923Z,4.60
2023-05-16T13:02:49.490Z,2.90
2023-05-16T13:05:18.203Z,3.40
2023-05-16T13:07:45.660Z,2.70
2023-05-16T13:10:13.621Z,2.40
2023-05-16T13:12:41.313Z,2.20
2023-05-16T13:15:10.607Z,2.50
2023-05-16T13:17:44.280Z,2.80
2023-05-16T13:20:15.527Z,2.70
2023-05-16T13:22:43.562Z,3.80
2023-05-16T13:25:11.306Z,3.90
2023-05-16T13:27:38.326Z,4.20
2023-05-16T13:30:05.879Z,5.40
2023-05-16T13:32:33.002Z,5.20
2023-05-16T13:34:59.926Z,4.40
2023-05-16T13:37:27.481Z,4.50
2023-05-16T13:39:55.116Z,5.40
2023-05-16T13:42:22.686Z,5.10
2023-05-16T13:44:50.415Z,4.90
2023-05-16T13:47:17.966Z,5.00
2023-05-16T13:49:45.793Z,4.10
2023-05-16T13:52:13.315Z,4.20
2023-05-16T13:54:41.754Z,4.10
2023-05-16T13:57:09.172Z,6.10
2023-05-16T14:02:07.333Z,3.40
2023-05-16T14:04:35.017Z,4.30
2023-05-16T14:07:02.491Z,4.30
2023-05-16T14:09:30.120Z,4.90
2023-05-16T14:11:57.558Z,4.20
2023-05-16T14:14:25.131Z,4.20
2023-05-16T14:16:52.968Z,3.90
2023-05-16T14:19:20.553Z,2.90
2023-05-16T14:21:48.191Z,4.80
2023-05-16T14:24:15.471Z,3.40
2023-05-16T14:26:42.733Z,4.30
2023-05-16T14:29:10.124Z,2.90
2023-05-16T14:31:37.855Z,3.20
2023-05-16T14:34:05.755Z,3.70
2023-05-16T14:36:33.206Z,4.50
2023-05-16T14:39:00.821Z,2.90
2023-05-16T14:41:28.400Z,2.70
2023-05-16T14:43:56.419Z,3.80
2023-05-16T14:46:24.025Z,4.80
2023-05-16T14:48:52.128Z,3.20
2023-05-16T14:51:19.807Z,4.10
2023-05-16T14:53:47.587Z,4.70
2023-05-16T14:56:14.867Z,6.20
2023-05-16T14:58:42.213Z,9.00
2023-05-16T15:01:11.003Z,6.80
2023-05-16T15:03:53.793Z,6.20
2023-05-16T15:06:23.796Z,7.00
2023-05-16T15:08:51.724Z,5.80
2023-05-16T15:11:19.673Z,5.70
2023-05-16T15:13:48.438Z,5.30
2023-05-16T15:16:16.877Z,9.60
2023-05-16T15:18:44.620Z,11.20
2023-05-16T15:21:12.332Z,13.00
2023-05-16T15:23:39.726Z,19.60
2023-05-16T15:26:07.144Z,19.00
2023-05-16T15:28:34.655Z,11.40
2023-05-16T15:31:03.782Z,6.10
2023-05-16T15:33:31.360Z,5.80
2023-05-16T15:35:58.845Z,3.80
2023-05-16T15:38:26.489Z,4.40
2023-05-16T15:41:06.071Z,3.70
2023-05-16T15:43:40.900Z,3.70
2023-05-16T15:46:08.611Z,3.80
2023-05-16T15:48:36.522Z,3.70
2023-05-16T15:51:04.496Z,3.70
2023-05-16T15:53:31.799Z,3.00
2023-05-16T15:55:59.235Z,4.40
2023-05-16T15:58:26.640Z,3.10
2023-05-16T16:00:55.419Z,3.20
2023-05-16T16:03:23.104Z,3.90
2023-05-16T16:05:51.738Z,4.10
2023-05-16T16:08:20.308Z,3.50
2023-05-16T16:10:47.802Z,3.50
2023-05-16T16:13:15.428Z,3.30
2023-05-16T16:15:42.944Z,3.10
2023-05-16T16:18:11.985Z,4.10
2023-05-16T16:20:39.572Z,3.50
2023-05-16T16:23:06.930Z,3.90
2023-05-16T16:25:34.406Z,4.00
2023-05-16T16:28:01.928Z,5.60
2023-05-16T16:30:29.394Z,3.10
2023-05-16T16:32:56.771Z,3.60
2023-05-16T16:35:26.445Z,4.20
2023-05-16T16:38:05.499Z,2.80
2023-05-16T16:40:34.111Z,2.80
2023-05-16T16:43:01.759Z,3.00
2023-05-16T16:45:29.338Z,4.20
2023-05-16T16:47:56.981Z,4.00
2023-05-16T16:50:25.576Z,4.00
2023-05-16T16:52:54.231Z,5.80
2023-05-16T16:55:21.728Z,4.70
2023-05-16T16:57:49.215Z,5.40
2023-05-16T17:00:17.409Z,4.50
2023-05-16T17:02:44.992Z,4.30
2023-05-16T17:05:12.717Z,3.20
2023-05-16T17:07:40.091Z,4.20
2023-05-16T17:10:08.133Z,4.90
2023-05-16T17:12:35.740Z,3.40
2023-05-16T17:15:03.679Z,3.50
2023-05-16T17:17:31.274Z,2.70
2023-05-16T17:19:58.969Z,2.50
2023-05-16T17:22:26.705Z,3.80
2023-05-16T17:24:54.084Z,3.30
2023-05-16T17:27:21.566Z,3.40
2023-05-16T17:29:48.821Z,4.50
2023-05-16T17:32:17.616Z,4.40
2023-05-16T17:34:45.341Z,4.30
2023-05-16T17:37:12.755Z,3.90
2023-05-16T17:39:40.094Z,4.10
2023-05-16T17:42:07.891Z,5.00
2023-05-16T17:44:36.725Z,4.80
2023-05-16T17:47:04.372Z,6.20
2023-05-16T17:49:31.866Z,5.40
2023-05-16T17:51:59.460Z,4.90
2023-05-16T17:54:30.871Z,4.80
2023-05-16T17:56:58.851Z,5.60
2023-05-16T17:59:27.624Z,5.10
2023-05-16T18:01:56.351Z,4.20
2023-05-16T18:04:24.172Z,4.10
2023-05-16T18:06:54.771Z,4.40
2023-05-16T18:09:22.384Z,4.30
2023-05-16T18:11:50.665Z,4.70
2023-05-16T18:14:18.089Z,3.90
2023-05-16T18:16:45.467Z,3.90
2023-05-16T18:19:13.233Z,4.10
2023-05-16T18:21:41.188Z,4.50
2023-05-16T18:24:09.695Z,3.90
2023-05-16T18:26:38.294Z,5.80
2023-05-16T18:29:05.869Z,4.90
2023-05-16T18:31:34.433Z,4.40
2023-05-16T18:34:02.010Z,3.90
2023-05-16T18:36:30.067Z,3.80
2023-05-16T18:38:57.506Z,4.30
2023-05-16T18:41:25.088Z,4.10
2023-05-16T18:43:52.573Z,4.60
2023-05-16T18:46:20.141Z,5.30
2023-05-16T18:48:47.510Z,5.40
2023-05-16T18:51:14.912Z,5.10
2023-05-16T18:53:42.511Z,5.20
2023-05-16T18:56:09.942Z,4.70
2023-05-16T18:58:37.679Z,4.80
2023-05-16T19:01:05.550Z,4.80
2023-05-16T19:03:33.027Z,4.20
2023-05-16T19:06:00.757Z,3.30
2023-05-16T19:08:36.728Z,3.60
2023-05-16T19:11:14.356Z,3.40
2023-05-16T19:13:41.960Z,3.20
2023-05-16T19:16:09.601Z,3.00
2023-05-16T19:18:37.497Z,3.40
2023-05-16T19:21:05.341Z,2.70
2023-05-16T19:23:32.884Z,3.90
2023-05-16T19:26:00.734Z,2.80
2023-05-16T19:28:28.144Z,3.50
2023-05-16T19:30:55.552Z,4.20
2023-05-16T19:33:23.076Z,5.00
2023-05-16T19:35:53.051Z,5.10
2023-05-16T19:38:20.562Z,3.40
2023-05-16T19:40:47.946Z,3.40
2023-05-16T19:43:15.617Z,4.00
2023-05-16T19:45:43.317Z,3.40
2023-05-16T19:48:11.013Z,5.00
2023-05-16T19:50:38.480Z,3.80
2023-05-16T19:53:05.812Z,4.40
2023-05-16T19:55:35.156Z,3.60
2023-05-16T19:58:04.160Z,3.60
2023-05-16T20:00:31.497Z,3.50
2023-05-16T20:02:59.848Z,3.70
2023-05-16T20:05:27.564Z,4.40
2023-05-16T20:07:56.206Z,4.70
2023-05-16T20:10:24.010Z,3.90
2023-05-16T20:12:51.613Z,3.80
2023-05-16T20:15:19.083Z,4.70
2023-05-16T20:17:46.570Z,3.30
2023-05-16T20:20:14.131Z,4.10
2023-05-16T20:22:42.171Z,4.30
2023-05-16T20:25:10.495Z,4.40
2023-05-16T20:27:38.272Z,3.80
2023-05-16T20:30:07.146Z,4.20
2023-05-16T20:32:35.101Z,4.00
2023-05-16T20:35:04.634Z,4.60
2023-05-16T20:37:32.060Z,4.10
2023-05-16T20:39:59.506Z,4.00
2023-05-16T20:42:26.791Z,4.20
2023-05-16T20:44:54.276Z,4.50
2023-05-16T20:47:21.684Z,4.10
2023-05-16T20:49:49.015Z,4.20
2023-05-16T20:52:16.458Z,4.50
2023-05-16T20:54:44.197Z,3.90
2023-05-16T20:57:11.874Z,4.20
2023-05-16T20:59:39.599Z,4.40
2023-05-16T21:02:09.978Z,4.70
2023-05-16T21:04:38.122Z,5.40
2023-05-16T21:07:08.122Z,3.90
2023-05-16T21:09:38.093Z,4.80
2023-05-16T21:12:05.942Z,5.10
2023-05-16T21:14:33.414Z,4.40
2023-05-16T21:17:00.875Z,5.10
2023-05-16T21:19:30.433Z,4.90
2023-05-16T21:21:57.976Z,4.70
2023-05-16T21:24:25.537Z,4.00
2023-05-16T21:26:52.820Z,4.70
2023-05-16T21:29:20.222Z,4.90
2023-05-16T21:31:47.830Z,3.80
2023-05-16T21:34:15.315Z,5.10
2023-05-16T21:36:42.629Z,4.30
2023-05-16T21:39:09.994Z,4.50
2023-05-16T21:41:37.500Z,5.10
2023-05-16T21:44:04.998Z,4.40
2023-05-16T21:46:32.348Z,4.50
2023-05-16T21:48:59.802Z,4.30
2023-05-16T21:51:27.415Z,4.40
2023-05-16T21:53:54.847Z,4.90
2023-05-16T21:56:23.006Z,4.10
2023-05-16T21:58:50.437Z,4.50
2023-05-16T22:01:20.282Z,4.30
2023-05-16T22:03:47.837Z,5.30
2023-05-16T22:06:15.209Z,4.50
2023-05-16T22:08:42.546Z,4.30
2023-05-16T22:11:09.905Z,4.30
2023-05-16T22:13:37.345Z,4.50
2023-05-16T22:16:05.541Z,4.00
2023-05-16T22:18:33.715Z,5.00
2023-05-16T22:21:01.861Z,4.10
2023-05-16T22:23:29.303Z,4.70
2023-05-16T22:25:56.602Z,5.10
2023-05-16T22:28:23.980Z,4.70
2023-05-16T22:30:51.406Z,4.80
2023-05-16T22:33:18.895Z,5.10
2023-05-16T22:35:46.391Z,4.90
2023-05-16T22:38:13.872Z,5.80
2023-05-16T22:40:41.496Z,5.20
2023-05-16T22:43:09.124Z,6.10
2023-05-16T22:45:36.513Z,6.60
2023-05-16T22:48:04.353Z,6.00
2023-05-16T22:50:31.819Z,5.40
2023-05-16T22:52:59.328Z,6.90
2023-05-16T22:55:26.781Z,6.50
2023-05-16T22:57:57.358Z,7.10
2023-05-16T23:00:24.741Z,7.40
2023-05-16T23:02:52.346Z,8.30
2023-05-16T23:05:19.725Z,9.60
2023-05-16T23:07:47.177Z,8.20
2023-05-16T23:10:14.681Z,10.70
2023-05-16T23:12:42.211Z,8.70
2023-05-16T23:15:10.655Z,11.10
2023-05-16T23:17:39.220Z,8.50
2023-05-16T23:20:07.667Z,7.40
2023-05-16T23:22:35.301Z,8.10
2023-05-16T23:25:02.931Z,7.00
2023-05-16T23:27:30.671Z,7.00
2023-05-16T23:29:58.492Z,6.80
2023-05-16T23:32:26.060Z,6.90
2023-05-16T23:34:53.625Z,5.70
2023-05-16T23:37:21.175Z,6.60
2023-05-16T23:39:48.777Z,5.80
2023-05-16T23:42:16.185Z,6.20
2023-05-16T23:44:43.709Z,7.80
2023-05-16T23:47:11.351Z,6.40
2023-05-16T23:49:38.792Z,5.90
2023-05-16T23:52:06.510Z,5.20
2023-05-16T23:54:34.331Z,5.20
2023-05-16T23:57:01.766Z,5.90
2023-05-16T23:59:29.004Z,6.80
